sensor_id;sensor_type;location;lat;lon;timestamp;P1;durP1;ratioP1;P2;durP2;ratioP2
38853;SDS011;24606;51.992;4.198;2022-09-20T00:04:16;1.60;;;0.50;;
38853;SDS011;24606;51.992;4.198;2022-09-20T00:09:18;3.17;;;0.70;;
38853;SDS011;24606;51.992;4.198;2022-09-20T00:14:21;1.42;;;0.32;;
38853;SDS011;24606;51.992;4.198;2022-09-20T00:19:23;3.50;;;0.60;;
38853;SDS011;24606;51.992;4.198;2022-09-20T00:24:24;3.47;;;0.80;;
38853;SDS011;24606;51.992;4.198;2022-09-20T00:29:27;2.78;;;0.50;;
38853;SDS011;24606;51.992;4.198;2022-09-20T00:34:29;1.65;;;0.47;;
38853;SDS011;24606;51.992;4.198;2022-09-20T00:39:49;2.47;;;0.50;;
38853;SDS011;24606;51.992;4.198;2022-09-20T00:44:54;2.90;;;0.50;;
38853;SDS011;24606;51.992;4.198;2022-09-20T00:49:58;1.75;;;0.73;;
38853;SDS011;24606;51.992;4.198;2022-09-20T00:55:06;2.50;;;0.57;;
38853;SDS011;24606;51.992;4.198;2022-09-20T01:00:11;4.53;;;0.70;;
38853;SDS011;24606;51.992;4.198;2022-09-20T01:05:14;2.25;;;0.47;;
38853;SDS011;24606;51.992;4.198;2022-09-20T01:10:18;0.93;;;0.38;;
38853;SDS011;24606;51.992;4.198;2022-09-20T01:15:21;3.85;;;0.40;;
38853;SDS011;24606;51.992;4.198;2022-09-20T01:20:27;2.75;;;0.40;;
38853;SDS011;24606;51.992;4.198;2022-09-20T01:25:40;1.45;;;0.40;;
38853;SDS011;24606;51.992;4.198;2022-09-20T01:31:07;1.45;;;0.38;;
38853;SDS011;24606;51.992;4.198;2022-09-20T01:36:13;0.70;;;0.30;;
38853;SDS011;24606;51.992;4.198;2022-09-20T01:41:20;1.98;;;0.50;;
38853;SDS011;24606;51.992;4.198;2022-09-20T01:46:30;1.50;;;0.43;;
38853;SDS011;24606;51.992;4.198;2022-09-20T01:51:44;2.38;;;0.30;;
38853;SDS011;24606;51.992;4.198;2022-09-20T01:57:16;0.73;;;0.40;;
38853;SDS011;24606;51.992;4.198;2022-09-20T02:08:50;1.65;;;0.40;;
38853;SDS011;24606;51.992;4.198;2022-09-20T02:14:09;1.63;;;0.38;;
38853;SDS011;24606;51.992;4.198;2022-09-20T02:19:44;1.92;;;0.77;;
38853;SDS011;24606;51.992;4.198;2022-09-20T02:24:56;0.65;;;0.28;;
38853;SDS011;24606;51.992;4.198;2022-09-20T02:30:11;0.55;;;0.30;;
38853;SDS011;24606;51.992;4.198;2022-09-20T02:35:26;2.38;;;0.40;;
38853;SDS011;24606;51.992;4.198;2022-09-20T02:40:45;1.70;;;0.50;;
38853;SDS011;24606;51.992;4.198;2022-09-20T02:46:02;0.80;;;0.30;;
38853;SDS011;24606;51.992;4.198;2022-09-20T02:51:13;1.15;;;0.52;;
38853;SDS011;24606;51.992;4.198;2022-09-20T02:56:21;0.98;;;0.40;;
38853;SDS011;24606;51.992;4.198;2022-09-20T03:01:34;1.10;;;0.40;;
38853;SDS011;24606;51.992;4.198;2022-09-20T03:06:47;1.10;;;0.50;;
38853;SDS011;24606;51.992;4.198;2022-09-20T03:11:57;1.85;;;0.30;;
38853;SDS011;24606;51.992;4.198;2022-09-20T03:17:07;1.43;;;0.70;;
38853;SDS011;24606;51.992;4.198;2022-09-20T03:22:20;4.18;;;0.85;;
38853;SDS011;24606;51.992;4.198;2022-09-20T03:27:29;0.55;;;0.28;;
38853;SDS011;24606;51.992;4.198;2022-09-20T03:32:43;2.30;;;0.35;;
38853;SDS011;24606;51.992;4.198;2022-09-20T03:37:57;1.15;;;0.40;;
38853;SDS011;24606;51.992;4.198;2022-09-20T03:43:12;1.42;;;0.50;;
38853;SDS011;24606;51.992;4.198;2022-09-20T03:48:32;2.30;;;0.20;;
38853;SDS011;24606;51.992;4.198;2022-09-20T03:59:25;1.45;;;0.60;;
38853;SDS011;24606;51.992;4.198;2022-09-20T04:04:48;0.57;;;0.28;;
38853;SDS011;24606;51.992;4.198;2022-09-20T04:15:28;2.13;;;0.60;;
38853;SDS011;24606;51.992;4.198;2022-09-20T04:20:37;3.03;;;0.55;;
38853;SDS011;24606;51.992;4.198;2022-09-20T04:25:46;1.60;;;0.40;;
38853;SDS011;24606;51.992;4.198;2022-09-20T04:30:52;0.98;;;0.52;;
38853;SDS011;24606;51.992;4.198;2022-09-20T04:36:02;1.67;;;0.50;;
38853;SDS011;24606;51.992;4.198;2022-09-20T04:41:40;0.73;;;0.40;;
38853;SDS011;24606;51.992;4.198;2022-09-20T04:47:10;4.30;;;0.38;;
38853;SDS011;24606;51.992;4.198;2022-09-20T04:52:45;1.10;;;0.30;;
38853;SDS011;24606;51.992;4.198;2022-09-20T04:58:32;1.85;;;0.50;;
38853;SDS011;24606;51.992;4.198;2022-09-20T05:09:17;2.40;;;0.45;;
38853;SDS011;24606;51.992;4.198;2022-09-20T05:14:38;0.47;;;0.25;;
38853;SDS011;24606;51.992;4.198;2022-09-20T05:20:10;0.90;;;0.40;;
38853;SDS011;24606;51.992;4.198;2022-09-20T05:25:40;0.80;;;0.40;;
38853;SDS011;24606;51.992;4.198;2022-09-20T05:31:04;4.68;;;0.40;;
38853;SDS011;24606;51.992;4.198;2022-09-20T05:36:12;3.33;;;0.30;;
38853;SDS011;24606;51.992;4.198;2022-09-20T05:41:22;2.55;;;0.80;;
38853;SDS011;24606;51.992;4.198;2022-09-20T05:46:35;3.58;;;1.02;;
38853;SDS011;24606;51.992;4.198;2022-09-20T05:51:51;3.38;;;1.30;;
38853;SDS011;24606;51.992;4.198;2022-09-20T05:57:09;1.83;;;0.93;;
38853;SDS011;24606;51.992;4.198;2022-09-20T06:02:27;1.25;;;0.68;;
38853;SDS011;24606;51.992;4.198;2022-09-20T06:07:42;1.90;;;0.52;;
38853;SDS011;24606;51.992;4.198;2022-09-20T06:12:54;4.03;;;0.90;;
38853;SDS011;24606;51.992;4.198;2022-09-20T06:18:05;4.00;;;1.17;;
38853;SDS011;24606;51.992;4.198;2022-09-20T06:23:19;2.72;;;0.70;;
38853;SDS011;24606;51.992;4.198;2022-09-20T06:28:23;4.28;;;0.98;;
38853;SDS011;24606;51.992;4.198;2022-09-20T06:33:30;4.47;;;1.60;;
38853;SDS011;24606;51.992;4.198;2022-09-20T06:38:37;3.78;;;0.65;;
38853;SDS011;24606;51.992;4.198;2022-09-20T06:44:04;2.40;;;0.73;;
38853;SDS011;24606;51.992;4.198;2022-09-20T06:49:07;3.55;;;0.70;;
38853;SDS011;24606;51.992;4.198;2022-09-20T06:54:10;3.65;;;1.00;;
38853;SDS011;24606;51.992;4.198;2022-09-20T06:59:17;2.85;;;0.70;;
38853;SDS011;24606;51.992;4.198;2022-09-20T07:04:20;6.00;;;0.88;;
38853;SDS011;24606;51.992;4.198;2022-09-20T07:09:26;2.72;;;0.52;;
38853;SDS011;24606;51.992;4.198;2022-09-20T07:14:28;3.17;;;0.70;;
38853;SDS011;24606;51.992;4.198;2022-09-20T07:19:31;2.22;;;0.68;;
38853;SDS011;24606;51.992;4.198;2022-09-20T07:24:33;3.88;;;0.80;;
38853;SDS011;24606;51.992;4.198;2022-09-20T07:29:35;2.65;;;0.40;;
38853;SDS011;24606;51.992;4.198;2022-09-20T07:34:38;2.25;;;0.47;;
38853;SDS011;24606;51.992;4.198;2022-09-20T07:39:40;3.15;;;0.63;;
38853;SDS011;24606;51.992;4.198;2022-09-20T07:44:42;3.30;;;0.80;;
38853;SDS011;24606;51.992;4.198;2022-09-20T07:49:45;5.82;;;0.77;;
38853;SDS011;24606;51.992;4.198;2022-09-20T07:54:47;3.20;;;0.68;;
38853;SDS011;24606;51.992;4.198;2022-09-20T07:59:49;3.40;;;0.65;;
38853;SDS011;24606;51.992;4.198;2022-09-20T08:04:52;4.28;;;0.70;;
38853;SDS011;24606;51.992;4.198;2022-09-20T08:09:54;6.53;;;0.55;;
38853;SDS011;24606;51.992;4.198;2022-09-20T08:14:56;2.28;;;0.40;;
38853;SDS011;24606;51.992;4.198;2022-09-20T08:19:59;2.53;;;0.40;;
38853;SDS011;24606;51.992;4.198;2022-09-20T08:25:02;4.07;;;0.50;;
38853;SDS011;24606;51.992;4.198;2022-09-20T08:30:04;3.58;;;0.70;;
38853;SDS011;24606;51.992;4.198;2022-09-20T08:35:09;1.60;;;0.38;;
38853;SDS011;24606;51.992;4.198;2022-09-20T08:40:12;1.13;;;0.50;;
38853;SDS011;24606;51.992;4.198;2022-09-20T08:45:16;1.80;;;0.77;;
38853;SDS011;24606;51.992;4.198;2022-09-20T08:50:21;1.75;;;0.60;;
38853;SDS011;24606;51.992;4.198;2022-09-20T08:55:24;3.60;;;0.57;;
38853;SDS011;24606;51.992;4.198;2022-09-20T09:00:31;1.42;;;0.45;;
38853;SDS011;24606;51.992;4.198;2022-09-20T09:05:36;3.22;;;0.70;;
38853;SDS011;24606;51.992;4.198;2022-09-20T09:10:41;3.10;;;0.60;;
38853;SDS011;24606;51.992;4.198;2022-09-20T09:15:44;5.30;;;0.60;;
38853;SDS011;24606;51.992;4.198;2022-09-20T09:20:54;3.40;;;0.50;;
38853;SDS011;24606;51.992;4.198;2022-09-20T09:25:57;1.98;;;0.30;;
38853;SDS011;24606;51.992;4.198;2022-09-20T09:31:11;2.33;;;0.70;;
38853;SDS011;24606;51.992;4.198;2022-09-20T09:36:22;1.90;;;0.40;;
38853;SDS011;24606;51.992;4.198;2022-09-20T09:41:27;5.22;;;0.60;;
38853;SDS011;24606;51.992;4.198;2022-09-20T09:46:35;7.43;;;0.75;;
38853;SDS011;24606;51.992;4.198;2022-09-20T09:51:40;9.15;;;0.90;;
38853;SDS011;24606;51.992;4.198;2022-09-20T09:56:45;6.68;;;0.80;;
38853;SDS011;24606;51.992;4.198;2022-09-20T10:01:58;1.25;;;0.40;;
38853;SDS011;24606;51.992;4.198;2022-09-20T10:07:13;2.53;;;0.30;;
38853;SDS011;24606;51.992;4.198;2022-09-20T10:12:24;2.97;;;0.50;;
38853;SDS011;24606;51.992;4.198;2022-09-20T10:17:44;8.85;;;0.75;;
38853;SDS011;24606;51.992;4.198;2022-09-20T10:22:54;2.67;;;0.43;;
38853;SDS011;24606;51.992;4.198;2022-09-20T10:28:10;3.88;;;0.52;;
38853;SDS011;24606;51.992;4.198;2022-09-20T10:33:22;1.00;;;0.50;;
38853;SDS011;24606;51.992;4.198;2022-09-20T10:38:33;1.80;;;0.50;;
38853;SDS011;24606;51.992;4.198;2022-09-20T10:43:41;3.28;;;0.60;;
38853;SDS011;24606;51.992;4.198;2022-09-20T10:49:03;6.27;;;0.40;;
38853;SDS011;24606;51.992;4.198;2022-09-20T10:54:23;1.80;;;0.47;;
38853;SDS011;24606;51.992;4.198;2022-09-20T10:59:34;2.67;;;0.80;;
38853;SDS011;24606;51.992;4.198;2022-09-20T11:04:47;2.35;;;0.60;;
38853;SDS011;24606;51.992;4.198;2022-09-20T11:10:02;2.83;;;0.40;;
38853;SDS011;24606;51.992;4.198;2022-09-20T11:15:14;3.33;;;0.35;;
38853;SDS011;24606;51.992;4.198;2022-09-20T11:20:22;2.15;;;0.50;;
38853;SDS011;24606;51.992;4.198;2022-09-20T11:25:32;2.92;;;0.57;;
38853;SDS011;24606;51.992;4.198;2022-09-20T11:30:39;2.85;;;0.45;;
38853;SDS011;24606;51.992;4.198;2022-09-20T11:35:49;3.90;;;0.88;;
38853;SDS011;24606;51.992;4.198;2022-09-20T11:40:54;0.57;;;0.32;;
38853;SDS011;24606;51.992;4.198;2022-09-20T11:46:03;6.38;;;0.63;;
38853;SDS011;24606;51.992;4.198;2022-09-20T11:51:15;1.70;;;0.43;;
38853;SDS011;24606;51.992;4.198;2022-09-20T11:56:40;1.85;;;0.65;;
38853;SDS011;24606;51.992;4.198;2022-09-20T12:01:50;0.65;;;0.35;;
38853;SDS011;24606;51.992;4.198;2022-09-20T12:06:59;3.33;;;0.50;;
38853;SDS011;24606;51.992;4.198;2022-09-20T12:12:14;2.05;;;0.73;;
38853;SDS011;24606;51.992;4.198;2022-09-20T12:28:36;2.40;;;0.30;;
38853;SDS011;24606;51.992;4.198;2022-09-20T12:33:53;1.08;;;0.40;;
38853;SDS011;24606;51.992;4.198;2022-09-20T12:38:57;2.58;;;0.50;;
38853;SDS011;24606;51.992;4.198;2022-09-20T12:44:03;2.85;;;0.40;;
38853;SDS011;24606;51.992;4.198;2022-09-20T12:55:08;2.80;;;0.90;;
38853;SDS011;24606;51.992;4.198;2022-09-20T13:00:27;1.50;;;0.60;;
38853;SDS011;24606;51.992;4.198;2022-09-20T13:05:34;1.92;;;0.50;;
38853;SDS011;24606;51.992;4.198;2022-09-20T13:10:38;1.58;;;0.70;;
38853;SDS011;24606;51.992;4.198;2022-09-20T13:15:49;11.82;;;0.90;;
38853;SDS011;24606;51.992;4.198;2022-09-20T13:20:53;5.25;;;0.55;;
38853;SDS011;24606;51.992;4.198;2022-09-20T13:25:59;2.63;;;0.50;;
38853;SDS011;24606;51.992;4.198;2022-09-20T13:36:34;4.00;;;0.73;;
38853;SDS011;24606;51.992;4.198;2022-09-20T13:41:37;7.75;;;0.80;;
38853;SDS011;24606;51.992;4.198;2022-09-20T13:46:43;2.83;;;0.60;;
38853;SDS011;24606;51.992;4.198;2022-09-20T13:51:46;4.15;;;0.47;;
38853;SDS011;24606;51.992;4.198;2022-09-20T13:56:48;3.67;;;0.88;;
38853;SDS011;24606;51.992;4.198;2022-09-20T14:01:53;2.33;;;0.50;;
38853;SDS011;24606;51.992;4.198;2022-09-20T14:06:56;4.07;;;0.50;;
38853;SDS011;24606;51.992;4.198;2022-09-20T14:11:59;3.50;;;0.45;;
38853;SDS011;24606;51.992;4.198;2022-09-20T14:17:05;5.05;;;0.80;;
38853;SDS011;24606;51.992;4.198;2022-09-20T14:22:12;2.38;;;0.68;;
38853;SDS011;24606;51.992;4.198;2022-09-20T14:27:19;4.70;;;1.00;;
38853;SDS011;24606;51.992;4.198;2022-09-20T14:37:47;2.78;;;0.70;;
38853;SDS011;24606;51.992;4.198;2022-09-20T14:42:51;4.63;;;0.80;;
38853;SDS011;24606;51.992;4.198;2022-09-20T14:48:01;3.03;;;0.75;;
38853;SDS011;24606;51.992;4.198;2022-09-20T14:53:13;0.95;;;0.40;;
38853;SDS011;24606;51.992;4.198;2022-09-20T14:58:22;4.93;;;0.63;;
38853;SDS011;24606;51.992;4.198;2022-09-20T15:03:27;3.65;;;1.08;;
38853;SDS011;24606;51.992;4.198;2022-09-20T15:08:32;2.50;;;1.10;;
38853;SDS011;24606;51.992;4.198;2022-09-20T15:13:35;2.28;;;1.27;;
38853;SDS011;24606;51.992;4.198;2022-09-20T15:18:39;3.05;;;1.63;;
38853;SDS011;24606;51.992;4.198;2022-09-20T15:23:42;2.47;;;1.13;;
38853;SDS011;24606;51.992;4.198;2022-09-20T15:33:47;3.28;;;1.70;;
38853;SDS011;24606;51.992;4.198;2022-09-20T15:38:52;5.47;;;1.08;;
38853;SDS011;24606;51.992;4.198;2022-09-20T15:43:53;1.73;;;0.95;;
38853;SDS011;24606;51.992;4.198;2022-09-20T15:48:57;5.93;;;1.23;;
38853;SDS011;24606;51.992;4.198;2022-09-20T15:54:02;2.30;;;1.08;;
38853;SDS011;24606;51.992;4.198;2022-09-20T15:59:07;2.42;;;0.82;;
38853;SDS011;24606;51.992;4.198;2022-09-20T16:04:12;1.90;;;0.65;;
38853;SDS011;24606;51.992;4.198;2022-09-20T16:09:16;4.03;;;0.98;;
38853;SDS011;24606;51.992;4.198;2022-09-20T16:14:19;2.40;;;0.43;;
38853;SDS011;24606;51.992;4.198;2022-09-20T16:24:25;2.97;;;0.70;;
38853;SDS011;24606;51.992;4.198;2022-09-20T16:29:28;5.53;;;0.63;;
38853;SDS011;24606;51.992;4.198;2022-09-20T16:34:32;1.88;;;0.60;;
38853;SDS011;24606;51.992;4.198;2022-09-20T16:39:35;2.42;;;0.50;;
38853;SDS011;24606;51.992;4.198;2022-09-20T16:44:38;3.25;;;0.50;;
38853;SDS011;24606;51.992;4.198;2022-09-20T16:49:43;5.50;;;0.50;;
38853;SDS011;24606;51.992;4.198;2022-09-20T16:54:46;2.17;;;0.75;;
38853;SDS011;24606;51.992;4.198;2022-09-20T16:59:48;1.88;;;0.50;;
38853;SDS011;24606;51.992;4.198;2022-09-20T17:04:52;1.95;;;0.50;;
38853;SDS011;24606;51.992;4.198;2022-09-20T17:09:54;1.77;;;0.40;;
38853;SDS011;24606;51.992;4.198;2022-09-20T17:15:00;4.55;;;0.70;;
38853;SDS011;24606;51.992;4.198;2022-09-20T17:25:08;4.80;;;1.08;;
38853;SDS011;24606;51.992;4.198;2022-09-20T17:30:10;6.07;;;0.70;;
38853;SDS011;24606;51.992;4.198;2022-09-20T17:35:14;1.27;;;0.55;;
38853;SDS011;24606;51.992;4.198;2022-09-20T17:40:17;1.23;;;0.50;;
38853;SDS011;24606;51.992;4.198;2022-09-20T17:50:22;15.97;;;1.53;;
38853;SDS011;24606;51.992;4.198;2022-09-20T17:55:24;1.83;;;0.40;;
38853;SDS011;24606;51.992;4.198;2022-09-20T18:00:27;7.85;;;0.68;;
38853;SDS011;24606;51.992;4.198;2022-09-20T18:05:33;1.05;;;0.40;;
38853;SDS011;24606;51.992;4.198;2022-09-20T18:10:35;1.17;;;0.35;;
38853;SDS011;24606;51.992;4.198;2022-09-20T18:15:37;1.95;;;0.55;;
38853;SDS011;24606;51.992;4.198;2022-09-20T18:20:42;4.95;;;1.23;;
38853;SDS011;24606;51.992;4.198;2022-09-20T18:25:44;2.55;;;0.50;;
38853;SDS011;24606;51.992;4.198;2022-09-20T18:31:04;1.60;;;0.32;;
38853;SDS011;24606;51.992;4.198;2022-09-20T18:36:10;5.65;;;0.60;;
38853;SDS011;24606;51.992;4.198;2022-09-20T18:41:14;2.92;;;0.50;;
38853;SDS011;24606;51.992;4.198;2022-09-20T18:46:16;2.65;;;0.50;;
38853;SDS011;24606;51.992;4.198;2022-09-20T18:51:25;1.40;;;0.50;;
38853;SDS011;24606;51.992;4.198;2022-09-20T18:56:28;4.38;;;0.82;;
38853;SDS011;24606;51.992;4.198;2022-09-20T19:01:34;2.78;;;0.63;;
38853;SDS011;24606;51.992;4.198;2022-09-20T19:06:59;1.23;;;0.60;;
38853;SDS011;24606;51.992;4.198;2022-09-20T19:12:14;4.00;;;0.80;;
38853;SDS011;24606;51.992;4.198;2022-09-20T19:17:21;5.05;;;0.80;;
38853;SDS011;24606;51.992;4.198;2022-09-20T19:22:41;2.88;;;1.10;;
38853;SDS011;24606;51.992;4.198;2022-09-20T19:27:49;5.22;;;1.00;;
38853;SDS011;24606;51.992;4.198;2022-09-20T19:32:52;4.00;;;1.10;;
38853;SDS011;24606;51.992;4.198;2022-09-20T19:37:58;4.72;;;1.65;;
38853;SDS011;24606;51.992;4.198;2022-09-20T19:43:23;5.95;;;1.40;;
38853;SDS011;24606;51.992;4.198;2022-09-20T19:48:39;6.20;;;1.63;;
38853;SDS011;24606;51.992;4.198;2022-09-20T19:53:49;8.02;;;1.23;;
38853;SDS011;24606;51.992;4.198;2022-09-20T19:58:52;7.40;;;1.20;;
38853;SDS011;24606;51.992;4.198;2022-09-20T20:03:55;6.28;;;1.10;;
38853;SDS011;24606;51.992;4.198;2022-09-20T20:09:00;4.78;;;1.73;;
38853;SDS011;24606;51.992;4.198;2022-09-20T20:14:11;6.97;;;1.60;;
38853;SDS011;24606;51.992;4.198;2022-09-20T20:24:56;11.77;;;3.38;;
38853;SDS011;24606;51.992;4.198;2022-09-20T20:29:58;12.45;;;2.80;;
38853;SDS011;24606;51.992;4.198;2022-09-20T20:34:59;9.77;;;1.83;;
38853;SDS011;24606;51.992;4.198;2022-09-20T20:40:03;7.78;;;1.98;;
38853;SDS011;24606;51.992;4.198;2022-09-20T20:45:11;5.78;;;1.92;;
38853;SDS011;24606;51.992;4.198;2022-09-20T20:50:13;8.55;;;2.75;;
38853;SDS011;24606;51.992;4.198;2022-09-20T20:55:16;11.15;;;2.60;;
38853;SDS011;24606;51.992;4.198;2022-09-20T21:00:18;6.32;;;1.98;;
38853;SDS011;24606;51.992;4.198;2022-09-20T21:10:25;14.30;;;2.10;;
38853;SDS011;24606;51.992;4.198;2022-09-20T21:15:27;5.97;;;2.40;;
38853;SDS011;24606;51.992;4.198;2022-09-20T21:25:32;10.43;;;2.03;;
38853;SDS011;24606;51.992;4.198;2022-09-20T21:30:34;5.90;;;2.05;;
38853;SDS011;24606;51.992;4.198;2022-09-20T21:35:36;6.80;;;2.60;;
38853;SDS011;24606;51.992;4.198;2022-09-20T21:40:39;23.90;;;4.53;;
38853;SDS011;24606;51.992;4.198;2022-09-20T21:45:41;9.05;;;1.85;;
38853;SDS011;24606;51.992;4.198;2022-09-20T21:50:45;8.15;;;1.90;;
38853;SDS011;24606;51.992;4.198;2022-09-20T21:55:48;9.23;;;2.33;;
38853;SDS011;24606;51.992;4.198;2022-09-20T22:00:59;8.98;;;2.60;;
38853;SDS011;24606;51.992;4.198;2022-09-20T22:06:03;11.48;;;2.20;;
38853;SDS011;24606;51.992;4.198;2022-09-20T22:11:07;9.07;;;1.98;;
38853;SDS011;24606;51.992;4.198;2022-09-20T22:16:12;7.15;;;1.42;;
38853;SDS011;24606;51.992;4.198;2022-09-20T22:21:15;12.00;;;2.25;;
38853;SDS011;24606;51.992;4.198;2022-09-20T22:26:20;7.03;;;2.63;;
38853;SDS011;24606;51.992;4.198;2022-09-20T22:31:23;4.55;;;1.80;;
38853;SDS011;24606;51.992;4.198;2022-09-20T22:36:28;6.07;;;1.60;;
38853;SDS011;24606;51.992;4.198;2022-09-20T22:41:33;12.93;;;2.03;;
38853;SDS011;24606;51.992;4.198;2022-09-20T22:46:35;10.80;;;1.77;;
38853;SDS011;24606;51.992;4.198;2022-09-20T22:51:38;8.85;;;1.75;;
38853;SDS011;24606;51.992;4.198;2022-09-20T22:56:41;3.42;;;1.25;;
38853;SDS011;24606;51.992;4.198;2022-09-20T23:01:46;4.95;;;2.60;;
38853;SDS011;24606;51.992;4.198;2022-09-20T23:06:49;6.22;;;1.50;;
38853;SDS011;24606;51.992;4.198;2022-09-20T23:11:55;10.38;;;1.90;;
38853;SDS011;24606;51.992;4.198;2022-09-20T23:16:57;9.00;;;2.03;;
38853;SDS011;24606;51.992;4.198;2022-09-20T23:22:00;4.80;;;1.50;;
38853;SDS011;24606;51.992;4.198;2022-09-20T23:27:08;3.85;;;1.55;;
38853;SDS011;24606;51.992;4.198;2022-09-20T23:32:10;3.20;;;1.48;;
38853;SDS011;24606;51.992;4.198;2022-09-20T23:37:12;3.00;;;1.52;;
38853;SDS011;24606;51.992;4.198;2022-09-20T23:42:15;4.25;;;2.13;;
38853;SDS011;24606;51.992;4.198;2022-09-20T23:47:17;4.57;;;1.30;;
38853;SDS011;24606;51.992;4.198;2022-09-20T23:52:19;2.47;;;1.30;;
38853;SDS011;24606;51.992;4.198;2022-09-20T23:57:22;3.15;;;1.40;;
